Time;durP1;ratioP1;P1;durP2;ratioP2;P2;SDS_P1;SDS_P2;PMS_P1;PMS_P2;Temp;Humidity;BMP_temperature;BMP_pressure;BME280_temperature;BME280_humidity;BME280_pressure;Samples;Min_cycle;Max_cycle;Signal;HPM_P1;HPM_P2
2022/08/09 00:02:05;;;;;;;;;;;24.50;82.10;;;;;;5094431;28;19924;-63
2022/08/09 00:04:30;;;;;;;;;;;24.50;82.10;;;;;;5097928;28;19994;-63
2022/08/09 00:06:56;;;;;;;;;;;24.50;82.10;;;;;;5079647;28;19912;-63
2022/08/09 00:09:22;;;;;;;;;;;24.50;82.10;;;;;;5079760;28;20416;-63
2022/08/09 00:11:47;;;;;;;;;;;24.50;82.10;;;;;;5097512;28;19908;-63
2022/08/09 00:14:13;;;;;;;;;;;24.50;82.00;;;;;;5079578;28;19915;-64
2022/08/09 00:16:39;;;;;;;;;;;24.50;82.00;;;;;;5097441;28;19908;-63
2022/08/09 00:19:05;;;;;;;;;;;24.50;82.10;;;;;;5097292;28;20042;-64
2022/08/09 00:21:30;;;;;;;;;;;24.50;82.00;;;;;;5097226;28;20350;-64
2022/08/09 00:23:57;;;;;;;;;;;24.50;81.90;;;;;;5097590;28;19916;-64
2022/08/09 00:26:26;;;;;;;;;;;24.50;81.90;;;;;;5097582;28;19981;-63
2022/08/09 00:28:52;;;;;;;;;;;24.50;82.00;;;;;;5079286;28;19916;-64
2022/08/09 00:31:18;;;;;;;;;;;24.50;82.00;;;;;;5097428;28;20302;-64
2022/08/09 00:33:44;;;;;;;;;;;24.50;81.90;;;;;;5097169;28;20003;-63
2022/08/09 00:36:10;;;;;;;;;;;24.50;81.90;;;;;;5079218;28;20377;-64
2022/08/09 00:38:36;;;;;;;;;;;24.50;82.00;;;;;;5097585;28;20007;-63
2022/08/09 00:41:01;;;;;;;;;;;24.40;82.00;;;;;;5097246;28;19945;-64
2022/08/09 00:43:29;;;;;;;;;;;24.50;82.00;;;;;;5097239;28;20374;-63
2022/08/09 00:45:54;;;;;;;;;;;24.50;82.00;;;;;;5096851;28;19912;-63
2022/08/09 00:48:20;;;;;;;;;;;24.40;82.00;;;;;;5097003;28;19918;-63
2022/08/09 00:50:45;;;;;;;;;;;24.40;81.90;;;;;;5096995;28;19940;-63
2022/08/09 00:53:11;;;;;;;;;;;24.50;82.00;;;;;;5096968;28;19954;-63
2022/08/09 00:55:37;;;;;;;;;;;24.50;81.90;;;;;;5078805;28;20365;-63
2022/08/09 00:58:02;;;;;;;;;;;24.50;82.00;;;;;;5096834;28;20251;-63
2022/08/09 01:00:28;;;;;;;;;;;24.50;81.80;;;;;;5097212;28;19912;-63
2022/08/09 01:03:03;;;;;;;;;;;24.50;81.90;;;;;;5096666;28;19931;-63
2022/08/09 01:05:28;;;;;;;;;;;24.50;81.90;;;;;;5096821;28;19931;-63
2022/08/09 01:08:03;;;;;;;;;;;24.40;81.90;;;;;;5078482;28;19912;-64
2022/08/09 01:10:53;;;;;;;;;;;24.40;81.80;;;;;;5096365;28;19912;-63
2022/08/09 01:13:28;;;;;;;;;;;24.40;81.90;;;;;;5096322;28;19908;-64
2022/08/09 01:15:55;;;;;;;;;;;24.50;81.90;;;;;;5096337;28;19994;-63
2022/08/09 01:18:23;;;;;;;;;;;24.50;81.90;;;;;;5096572;28;19908;-64
2022/08/09 01:20:54;;;;;;;;;;;24.40;81.80;;;;;;5096139;28;19908;-63
2022/08/09 01:23:38;;;;;;;;;;;24.50;81.90;;;;;;5096157;28;19934;-63
2022/08/09 01:26:12;;;;;;;;;;;24.50;81.80;;;;;;5096338;28;20063;-64
2022/08/09 01:28:40;;;;;;;;;;;24.50;81.90;;;;;;5095964;28;19912;-63
2022/08/09 01:31:06;;;;;;;;;;;24.50;81.80;;;;;;5095902;28;20371;-64
2022/08/09 01:33:35;;;;;;;;;;;24.40;81.80;;;;;;5095919;28;19922;-63
2022/08/09 01:36:04;;;;;;;;;;;24.40;81.80;;;;;;5096202;28;20362;-64
2022/08/09 01:38:32;;;;;;;;;;;24.40;81.80;;;;;;5096179;28;19909;-64
2022/08/09 01:41:03;;;;;;;;;;;24.40;81.90;;;;;;5096169;28;19908;-64
2022/08/09 01:43:30;;;;;;;;;;;24.40;81.90;;;;;;5096137;28;19908;-63
2022/08/09 01:45:56;;;;;;;;;;;24.40;81.80;;;;;;5095659;28;19908;-64
2022/08/09 01:48:22;;;;;;;;;;;24.40;81.80;;;;;;5095926;28;20007;-63
2022/08/09 01:50:49;;;;;;;;;;;24.40;81.80;;;;;;5095671;28;19919;-64
2022/08/09 01:53:15;;;;;;;;;;;24.40;81.80;;;;;;5077764;28;19912;-63
2022/08/09 01:55:41;;;;;;;;;;;24.40;81.80;;;;;;5096081;28;20381;-64
2022/08/09 01:58:07;;;;;;;;;;;24.40;81.90;;;;;;5077631;28;19908;-63
2022/08/09 02:00:34;;;;;;;;;;;24.40;81.80;;;;;;5095729;28;19908;-63
2022/08/09 02:03:00;;;;;;;;;;;24.40;81.70;;;;;;5095790;28;19926;-63
2022/08/09 02:05:26;;;;;;;;;;;24.40;81.70;;;;;;5095274;28;19909;-64
2022/08/09 02:07:54;;;;;;;;;;;24.40;81.70;;;;;;5077351;28;19965;-63
2022/08/09 02:10:22;;;;;;;;;;;24.40;81.90;;;;;;5095486;28;19947;-63
2022/08/09 02:12:48;;;;;;;;;;;24.40;81.80;;;;;;5095177;28;19964;-64
2022/08/09 02:15:15;;;;;;;;;;;24.40;81.80;;;;;;5095026;28;19920;-63
2022/08/09 02:17:41;;;;;;;;;;;24.40;81.80;;;;;;5095650;28;19962;-63
2022/08/09 02:20:07;;;;;;;;;;;24.40;81.80;;;;;;5095346;28;19908;-63
2022/08/09 02:22:41;;;;;;;;;;;24.40;81.80;;;;;;5077116;28;19942;-64
2022/08/09 02:25:13;;;;;;;;;;;24.40;81.80;;;;;;5095155;28;19908;-63
2022/08/09 02:27:39;;;;;;;;;;;24.40;81.80;;;;;;5095072;28;19958;-63
2022/08/09 02:30:06;;;;;;;;;;;24.40;81.80;;;;;;5094841;28;19969;-63
2022/08/09 02:32:33;;;;;;;;;;;24.40;81.80;;;;;;5094858;28;20049;-63
2022/08/09 02:35:03;;;;;;;;;;;24.40;81.80;;;;;;5095407;28;20278;-63
2022/08/09 02:37:30;;;;;;;;;;;24.40;81.70;;;;;;5094849;28;19998;-63
2022/08/09 02:39:59;;;;;;;;;;;24.40;81.70;;;;;;5094926;28;19961;-63
2022/08/09 02:42:27;;;;;;;;;;;24.40;81.80;;;;;;5094874;28;19916;-64
2022/08/09 02:44:55;;;;;;;;;;;24.40;81.70;;;;;;5094667;28;19958;-63
2022/08/09 02:47:22;;;;;;;;;;;24.40;81.80;;;;;;5094474;28;20305;-63
2022/08/09 02:49:50;;;;;;;;;;;24.40;81.70;;;;;;5094732;28;20000;-63
2022/08/09 02:52:16;;;;;;;;;;;24.40;81.70;;;;;;5094789;28;20232;-63
2022/08/09 02:54:43;;;;;;;;;;;24.30;81.70;;;;;;5094371;28;19912;-63
2022/08/09 02:57:08;;;;;;;;;;;24.40;81.70;;;;;;5094589;28;19953;-63
2022/08/09 02:59:35;;;;;;;;;;;24.40;81.80;;;;;;5076474;28;19916;-63
2022/08/09 03:02:01;;;;;;;;;;;24.40;81.80;;;;;;5076184;28;19919;-63
2022/08/09 03:04:27;;;;;;;;;;;24.30;81.80;;;;;;5094268;28;19908;-63
2022/08/09 03:06:54;;;;;;;;;;;24.30;81.70;;;;;;5094038;28;20252;-64
2022/08/09 03:09:20;;;;;;;;;;;24.30;81.70;;;;;;5094598;28;20278;-64
2022/08/09 03:11:47;;;;;;;;;;;24.30;81.80;;;;;;5076117;28;19938;-64
2022/08/09 03:14:13;;;;;;;;;;;24.30;81.70;;;;;;5094203;28;20388;-63
2022/08/09 03:16:39;;;;;;;;;;;24.30;81.70;;;;;;5094441;28;19915;-63
2022/08/09 03:19:05;;;;;;;;;;;24.30;81.80;;;;;;5094176;28;20283;-64
2022/08/09 03:21:31;;;;;;;;;;;24.30;81.70;;;;;;5076298;28;20359;-63
2022/08/09 03:23:57;;;;;;;;;;;24.30;81.70;;;;;;5094092;28;19995;-63
2022/08/09 03:26:22;;;;;;;;;;;24.30;81.70;;;;;;5076241;28;19943;-63
2022/08/09 03:28:48;;;;;;;;;;;24.30;81.70;;;;;;5076080;28;19965;-64
2022/08/09 03:31:15;;;;;;;;;;;24.40;81.80;;;;;;5076034;28;19920;-63
2022/08/09 03:33:41;;;;;;;;;;;24.30;81.70;;;;;;5094110;28;19912;-64
2022/08/09 03:36:07;;;;;;;;;;;24.30;81.70;;;;;;5094228;28;19915;-63
2022/08/09 03:38:33;;;;;;;;;;;24.40;81.70;;;;;;5079185;28;19915;-64
2022/08/09 03:40:59;;;;;;;;;;;24.30;81.60;;;;;;5098034;28;19912;-63
2022/08/09 03:43:26;;;;;;;;;;;24.30;81.70;;;;;;5080129;28;19953;-63
2022/08/09 03:45:51;;;;;;;;;;;24.30;81.70;;;;;;5097966;28;19908;-64
2022/08/09 03:48:17;;;;;;;;;;;24.30;81.60;;;;;;5097994;28;19912;-63
2022/08/09 03:50:43;;;;;;;;;;;24.30;82.20;;;;;;5098048;28;19912;-63
2022/08/09 03:53:09;;;;;;;;;;;24.30;81.70;;;;;;5097619;28;20279;-63
2022/08/09 03:55:35;;;;;;;;;;;24.30;81.60;;;;;;5098277;28;19908;-63
2022/08/09 03:58:00;;;;;;;;;;;24.40;81.70;;;;;;5098027;28;19907;-63
2022/08/09 04:00:26;;;;;;;;;;;24.30;81.60;;;;;;5097655;28;20282;-63
2022/08/09 04:02:53;;;;;;;;;;;24.30;81.60;;;;;;5098366;28;19999;-63
2022/08/09 04:05:19;;;;;;;;;;;24.30;81.70;;;;;;5097840;28;19908;-63
2022/08/09 04:07:46;;;;;;;;;;;24.30;81.60;;;;;;5097662;28;19955;-63
2022/08/09 04:10:13;;;;;;;;;;;24.30;81.60;;;;;;5098035;28;19919;-63
2022/08/09 04:12:46;;;;;;;;;;;24.30;81.70;;;;;;5097680;28;20267;-63
2022/08/09 04:15:12;;;;;;;;;;;24.30;81.70;;;;;;5079317;28;19908;-63
2022/08/09 04:17:38;;;;;;;;;;;24.30;81.70;;;;;;5097874;28;19923;-63
2022/08/09 04:20:05;;;;;;;;;;;24.30;81.70;;;;;;5097418;28;19974;-63
2022/08/09 04:22:30;;;;;;;;;;;24.30;81.70;;;;;;5097382;28;20270;-63
2022/08/09 04:24:55;;;;;;;;;;;24.30;81.70;;;;;;5097389;28;19908;-63
2022/08/09 04:27:21;;;;;;;;;;;24.30;81.70;;;;;;5097362;28;19919;-63
2022/08/09 04:29:46;;;;;;;;;;;24.30;81.70;;;;;;5097385;28;19934;-63
2022/08/09 04:32:12;;;;;;;;;;;24.30;81.60;;;;;;5097287;28;19931;-63
2022/08/09 04:34:38;;;;;;;;;;;24.30;81.70;;;;;;5079133;28;19915;-63
2022/08/09 04:37:03;;;;;;;;;;;24.30;82.20;;;;;;5097090;28;20066;-63
2022/08/09 04:39:28;;;;;;;;;;;24.30;81.70;;;;;;5096919;28;20268;-63
2022/08/09 04:41:54;;;;;;;;;;;24.30;81.70;;;;;;5097004;28;19932;-63
2022/08/09 04:44:19;;;;;;;;;;;24.30;81.70;;;;;;5096479;28;19908;-63
2022/08/09 04:46:45;;;;;;;;;;;24.30;81.70;;;;;;5096572;28;19999;-64
2022/08/09 04:49:10;;;;;;;;;;;24.30;81.70;;;;;;5095598;28;20332;-63
2022/08/09 04:51:36;;;;;;;;;;;24.30;81.70;;;;;;5096668;28;19915;-63
2022/08/09 04:54:01;;;;;;;;;;;24.30;81.70;;;;;;5078692;28;19989;-64
2022/08/09 04:56:27;;;;;;;;;;;24.30;81.70;;;;;;5078551;28;19961;-63
2022/08/09 04:58:52;;;;;;;;;;;24.30;81.60;;;;;;5096666;28;19908;-63
2022/08/09 05:01:18;;;;;;;;;;;24.30;81.60;;;;;;5096291;28;20382;-64
2022/08/09 05:03:43;;;;;;;;;;;24.30;81.60;;;;;;5096343;28;19962;-63
2022/08/09 05:06:12;;;;;;;;;;;24.40;81.60;;;;;;5096541;28;19908;-64
2022/08/09 05:08:37;;;;;;;;;;;24.40;81.60;;;;;;5096465;28;19918;-64
2022/08/09 05:11:03;;;;;;;;;;;24.40;81.60;;;;;;5096158;28;20027;-64
2022/08/09 05:13:29;;;;;;;;;;;24.30;81.60;;;;;;5078279;28;20007;-64
2022/08/09 05:15:54;;;;;;;;;;;24.40;81.60;;;;;;5096652;28;20311;-64
2022/08/09 05:18:20;;;;;;;;;;;24.40;81.60;;;;;;5095973;28;19908;-64
2022/08/09 05:20:45;;;;;;;;;;;24.30;81.60;;;;;;5096270;28;19908;-64
2022/08/09 05:23:11;;;;;;;;;;;24.40;81.70;;;;;;5096105;28;20278;-66
2022/08/09 05:25:36;;;;;;;;;;;24.30;81.60;;;;;;5096108;28;19908;-62
2022/08/09 05:28:02;;;;;;;;;;;24.40;81.60;;;;;;5096300;28;20332;-64
2022/08/09 05:30:28;;;;;;;;;;;24.40;81.60;;;;;;5095726;28;19995;-64
2022/08/09 05:32:54;;;;;;;;;;;24.30;81.60;;;;;;5095567;28;19912;-64
2022/08/09 05:35:20;;;;;;;;;;;24.40;81.60;;;;;;5095539;28;20320;-64
2022/08/09 05:37:47;;;;;;;;;;;24.40;81.60;;;;;;5096067;28;19915;-64
2022/08/09 05:40:13;;;;;;;;;;;24.40;81.60;;;;;;5095808;28;19960;-64
2022/08/09 05:42:39;;;;;;;;;;;24.40;82.20;;;;;;5095703;28;20343;-64
2022/08/09 05:45:05;;;;;;;;;;;24.40;81.60;;;;;;5095541;28;19908;-64
2022/08/09 05:47:31;;;;;;;;;;;24.30;81.60;;;;;;5095576;28;19998;-64
2022/08/09 05:49:56;;;;;;;;;;;24.40;81.70;;;;;;5095375;28;19965;-64
2022/08/09 05:52:22;;;;;;;;;;;24.40;81.70;;;;;;5077538;28;20270;-64
2022/08/09 05:54:48;;;;;;;;;;;24.30;81.70;;;;;;5095196;28;19954;-64
2022/08/09 05:57:13;;;;;;;;;;;24.40;81.70;;;;;;5077213;28;19908;-65
2022/08/09 05:59:39;;;;;;;;;;;24.40;81.60;;;;;;5094728;28;19912;-65
2022/08/09 06:02:04;;;;;;;;;;;24.40;81.60;;;;;;5095066;28;19928;-64
2022/08/09 06:04:30;;;;;;;;;;;24.40;81.60;;;;;;5094877;28;19954;-63
2022/08/09 06:06:56;;;;;;;;;;;24.40;81.60;;;;;;5076822;28;19908;-63
2022/08/09 06:09:21;;;;;;;;;;;24.40;81.60;;;;;;5076982;28;20013;-63
2022/08/09 06:11:46;;;;;;;;;;;24.40;81.60;;;;;;5094811;28;19908;-63
2022/08/09 06:14:12;;;;;;;;;;;24.40;81.60;;;;;;5094499;28;19912;-63
2022/08/09 06:16:37;;;;;;;;;;;24.40;81.60;;;;;;5076272;28;19908;-63
2022/08/09 06:19:03;;;;;;;;;;;24.40;81.60;;;;;;5094326;28;19915;-63
2022/08/09 06:21:29;;;;;;;;;;;24.40;81.60;;;;;;5094468;28;19961;-63
2022/08/09 06:23:54;;;;;;;;;;;24.40;81.60;;;;;;5076021;28;19913;-63
2022/08/09 06:26:21;;;;;;;;;;;24.40;81.60;;;;;;5094091;28;19908;-63
2022/08/09 06:28:50;;;;;;;;;;;24.40;81.60;;;;;;5094349;28;20372;-63
2022/08/09 06:31:15;;;;;;;;;;;24.40;81.60;;;;;;5076500;28;19920;-63
2022/08/09 06:33:41;;;;;;;;;;;24.40;81.60;;;;;;5095011;28;19912;-63
2022/08/09 06:36:07;;;;;;;;;;;24.40;81.60;;;;;;5094149;28;19930;-63
2022/08/09 06:38:32;;;;;;;;;;;24.40;81.60;;;;;;5094215;28;19970;-63
2022/08/09 06:40:58;;;;;;;;;;;24.40;81.60;;;;;;5094324;28;20270;-63
2022/08/09 06:43:23;;;;;;;;;;;24.40;81.50;;;;;;5076316;28;19915;-62
2022/08/09 06:45:49;;;;;;;;;;;24.40;81.60;;;;;;5093969;28;19915;-63
2022/08/09 06:48:14;;;;;;;;;;;24.40;81.60;;;;;;5093975;28;20009;-62
2022/08/09 06:50:39;;;;;;;;;;;24.40;81.60;;;;;;5076255;28;19919;-63
2022/08/09 06:53:05;;;;;;;;;;;24.40;81.60;;;;;;5094191;28;19908;-63
2022/08/09 06:55:31;;;;;;;;;;;24.40;81.60;;;;;;5075771;28;19908;-63
2022/08/09 06:57:57;;;;;;;;;;;24.40;81.60;;;;;;5076114;28;19915;-63
2022/08/09 07:00:23;;;;;;;;;;;24.40;81.60;;;;;;5094239;28;20256;-63
2022/08/09 07:02:50;;;;;;;;;;;24.40;81.70;;;;;;5093449;28;19927;-63
2022/08/09 07:05:15;;;;;;;;;;;24.40;81.70;;;;;;5094043;28;19912;-63
2022/08/09 07:07:41;;;;;;;;;;;24.40;81.70;;;;;;5075662;28;19938;-64
2022/08/09 07:10:06;;;;;;;;;;;24.40;81.60;;;;;;5093994;28;19912;-64
2022/08/09 07:12:32;;;;;;;;;;;24.30;81.70;;;;;;5093044;28;19909;-63
2022/08/09 07:14:57;;;;;;;;;;;24.30;81.70;;;;;;5093976;28;19908;-63
2022/08/09 07:17:23;;;;;;;;;;;24.30;81.60;;;;;;5075789;28;19908;-64
2022/08/09 07:19:49;;;;;;;;;;;24.30;81.70;;;;;;5093265;28;20006;-63
2022/08/09 07:22:15;;;;;;;;;;;24.30;81.60;;;;;;5075611;28;19912;-64
2022/08/09 07:24:40;;;;;;;;;;;24.30;81.50;;;;;;5075398;28;19908;-64
2022/08/09 07:27:07;;;;;;;;;;;24.30;81.50;;;;;;5093391;28;20053;-64
2022/08/09 07:29:32;;;;;;;;;;;24.30;81.60;;;;;;5075592;28;19913;-64
2022/08/09 07:32:00;;;;;;;;;;;24.30;81.60;;;;;;5093680;28;19919;-64
2022/08/09 07:34:25;;;;;;;;;;;24.30;81.50;;;;;;5093642;28;19954;-64
2022/08/09 07:36:51;;;;;;;;;;;24.30;81.50;;;;;;5093222;28;19912;-64
2022/08/09 07:39:16;;;;;;;;;;;24.40;81.50;;;;;;5075319;28;19908;-64
2022/08/09 07:41:42;;;;;;;;;;;24.30;81.40;;;;;;5093583;28;20007;-64
2022/08/09 07:44:07;;;;;;;;;;;24.30;81.40;;;;;;5093351;28;20335;-64
2022/08/09 07:46:33;;;;;;;;;;;24.30;81.40;;;;;;5075326;28;19981;-64
2022/08/09 07:48:58;;;;;;;;;;;24.30;81.50;;;;;;5093196;28;19914;-64
2022/08/09 07:51:24;;;;;;;;;;;24.30;81.50;;;;;;5093157;28;19939;-64
2022/08/09 07:53:50;;;;;;;;;;;24.30;81.50;;;;;;5075297;28;19915;-64
2022/08/09 07:56:15;;;;;;;;;;;24.30;81.40;;;;;;5093370;28;20005;-64
2022/08/09 07:58:41;;;;;;;;;;;24.30;81.50;;;;;;5093327;28;19922;-64
2022/08/09 08:01:06;;;;;;;;;;;24.30;81.50;;;;;;5075394;28;19908;-63
2022/08/09 08:03:32;;;;;;;;;;;24.30;81.50;;;;;;5093222;28;19908;-64
2022/08/09 08:05:58;;;;;;;;;;;24.30;81.50;;;;;;5093131;28;20342;-64
2022/08/09 08:08:23;;;;;;;;;;;24.30;81.50;;;;;;5093019;28;19912;-64
2022/08/09 08:10:49;;;;;;;;;;;24.30;81.60;;;;;;5075175;28;19934;-64
2022/08/09 08:13:15;;;;;;;;;;;24.40;81.60;;;;;;5093731;28;19912;-64
2022/08/09 08:15:40;;;;;;;;;;;24.30;81.60;;;;;;5093344;28;19998;-64
2022/08/09 08:18:05;;;;;;;;;;;24.30;81.60;;;;;;5093246;28;19908;-64
2022/08/09 08:20:31;;;;;;;;;;;24.30;81.50;;;;;;5075773;28;19908;-64
2022/08/09 08:22:57;;;;;;;;;;;24.20;81.40;;;;;;5075674;28;20236;-64
2022/08/09 08:25:23;;;;;;;;;;;24.30;81.50;;;;;;5079033;28;19915;-64
2022/08/09 08:27:48;;;;;;;;;;;24.30;81.50;;;;;;5097067;28;19912;-65
2022/08/09 08:30:16;;;;;;;;;;;24.30;81.50;;;;;;5097048;28;19920;-64
2022/08/09 08:32:42;;;;;;;;;;;24.30;81.40;;;;;;5078694;28;19908;-64
2022/08/09 08:35:07;;;;;;;;;;;24.30;81.40;;;;;;5078747;28;19908;-64
2022/08/09 08:37:34;;;;;;;;;;;24.30;81.40;;;;;;5096906;28;19954;-64
2022/08/09 08:39:59;;;;;;;;;;;24.30;81.30;;;;;;5078693;28;20049;-64
2022/08/09 08:42:26;;;;;;;;;;;24.30;81.30;;;;;;5096466;28;20345;-64
2022/08/09 08:44:54;;;;;;;;;;;24.30;81.20;;;;;;5096879;28;19940;-64
2022/08/09 08:47:20;;;;;;;;;;;24.30;81.20;;;;;;5096489;28;19912;-64
2022/08/09 08:49:46;;;;;;;;;;;24.30;81.20;;;;;;5096764;28;19919;-64
2022/08/09 08:52:12;;;;;;;;;;;24.30;81.10;;;;;;5078398;28;19915;-64
2022/08/09 08:54:38;;;;;;;;;;;24.30;81.10;;;;;;5078598;28;20271;-64
2022/08/09 08:57:03;;;;;;;;;;;24.30;81.00;;;;;;5078555;28;19965;-64
2022/08/09 08:59:29;;;;;;;;;;;24.30;81.10;;;;;;5096552;28;19915;-64
2022/08/09 09:01:54;;;;;;;;;;;24.30;81.10;;;;;;5095919;28;19920;-64
2022/08/09 09:04:22;;;;;;;;;;;24.40;81.20;;;;;;5096040;28;19936;-64
2022/08/09 09:06:50;;;;;;;;;;;24.40;81.20;;;;;;5096154;28;19908;-64
2022/08/09 09:09:16;;;;;;;;;;;24.40;81.20;;;;;;5078129;28;19912;-64
2022/08/09 09:11:42;;;;;;;;;;;24.30;81.20;;;;;;5096331;28;19915;-64
2022/08/09 09:14:20;;;;;;;;;;;24.40;81.10;;;;;;5078006;28;19908;-64
2022/08/09 09:16:45;;;;;;;;;;;24.40;81.10;;;;;;5095832;28;19915;-64
2022/08/09 09:19:11;;;;;;;;;;;24.40;81.10;;;;;;5096179;28;20355;-65
2022/08/09 09:21:53;;;;;;;;;;;24.40;81.00;;;;;;5095849;28;19908;-64
2022/08/09 09:24:25;;;;;;;;;;;24.40;81.00;;;;;;5096159;28;20255;-64
2022/08/09 09:26:55;;;;;;;;;;;24.40;81.00;;;;;;5095641;28;19908;-64
2022/08/09 09:29:27;;;;;;;;;;;24.40;81.10;;;;;;5096051;28;20224;-64
2022/08/09 09:31:53;;;;;;;;;;;24.40;81.00;;;;;;5077731;28;19908;-64
2022/08/09 09:34:18;;;;;;;;;;;24.40;80.90;;;;;;5077415;28;19908;-64
2022/08/09 09:36:44;;;;;;;;;;;24.40;80.90;;;;;;5077180;28;20002;-68
2022/08/09 09:39:10;;;;;;;;;;;24.40;80.90;;;;;;5095758;28;20355;-65
2022/08/09 09:41:35;;;;;;;;;;;24.40;80.90;;;;;;5095648;28;19908;-64
2022/08/09 09:44:03;;;;;;;;;;;24.40;80.90;;;;;;5077574;28;19912;-64
2022/08/09 09:46:29;;;;;;;;;;;24.40;80.90;;;;;;5095700;28;19967;-63
2022/08/09 09:48:57;;;;;;;;;;;24.40;80.90;;;;;;5077271;28;19912;-63
2022/08/09 09:51:23;;;;;;;;;;;24.40;81.00;;;;;;5095181;28;20278;-63
2022/08/09 09:54:02;;;;;;;;;;;24.40;81.00;;;;;;5077423;28;19916;-64
2022/08/09 09:56:37;;;;;;;;;;;24.40;80.90;;;;;;5094878;28;20366;-64
2022/08/09 09:59:03;;;;;;;;;;;24.40;80.80;;;;;;5076719;28;19937;-65
2022/08/09 10:01:29;;;;;;;;;;;24.40;80.80;;;;;;5094910;28;20269;-64
2022/08/09 10:03:55;;;;;;;;;;;24.40;80.80;;;;;;5095257;28;19908;-64
2022/08/09 10:06:21;;;;;;;;;;;24.40;80.80;;;;;;5077145;28;20339;-64
2022/08/09 10:08:48;;;;;;;;;;;24.40;80.80;;;;;;5094942;28;19912;-64
2022/08/09 10:11:24;;;;;;;;;;;24.40;80.60;;;;;;5076869;28;20018;-64
2022/08/09 10:13:51;;;;;;;;;;;24.40;80.60;;;;;;5095252;28;19923;-64
2022/08/09 10:16:26;;;;;;;;;;;24.40;80.50;;;;;;5094826;28;20412;-64
2022/08/09 10:18:52;;;;;;;;;;;24.40;80.40;;;;;;5094648;28;19908;-64
2022/08/09 10:21:17;;;;;;;;;;;24.40;80.40;;;;;;5094950;28;19934;-64
2022/08/09 10:23:43;;;;;;;;;;;24.40;80.30;;;;;;5094942;28;20019;-64
2022/08/09 10:26:09;;;;;;;;;;;24.40;80.50;;;;;;5094828;28;19915;-65
2022/08/09 10:28:35;;;;;;;;;;;24.40;80.60;;;;;;5094379;28;19977;-64
2022/08/09 10:31:01;;;;;;;;;;;24.40;80.60;;;;;;5094663;28;20390;-65
2022/08/09 10:33:27;;;;;;;;;;;24.40;80.50;;;;;;5095064;28;19915;-64
2022/08/09 10:35:53;;;;;;;;;;;24.40;80.50;;;;;;5094409;28;19912;-65
2022/08/09 10:38:19;;;;;;;;;;;24.40;80.50;;;;;;5094604;28;20385;-64
2022/08/09 10:40:44;;;;;;;;;;;24.40;80.40;;;;;;5094332;28;19908;-64
2022/08/09 10:43:11;;;;;;;;;;;24.40;80.50;;;;;;5094376;28;20279;-64
2022/08/09 10:45:37;;;;;;;;;;;24.40;80.50;;;;;;5094564;28;19912;-64
2022/08/09 10:48:21;;;;;;;;;;;24.40;80.50;;;;;;5094445;28;19962;-64
2022/08/09 10:51:05;;;;;;;;;;;24.40;80.50;;;;;;5094854;28;19919;-64
2022/08/09 10:53:34;;;;;;;;;;;24.40;80.50;;;;;;5076367;28;19908;-65
2022/08/09 10:56:18;;;;;;;;;;;24.40;80.50;;;;;;5094236;28;19911;-65
2022/08/09 10:58:43;;;;;;;;;;;24.40;80.50;;;;;;5094310;28;19908;-64
2022/08/09 11:01:28;;;;;;;;;;;24.40;80.60;;;;;;5094237;28;19935;-65
2022/08/09 11:04:08;;;;;;;;;;;24.40;80.50;;;;;;5076087;28;20339;-65
2022/08/09 11:06:37;;;;;;;;;;;24.40;80.50;;;;;;5094220;28;19944;-65
2022/08/09 11:09:04;;;;;;;;;;;24.40;80.50;;;;;;5093757;28;20366;-64
2022/08/09 11:12:00;;;;;;;;;;;24.40;80.50;;;;;;5094302;28;20006;-65
2022/08/09 11:14:27;;;;;;;;;;;24.40;80.50;;;;;;5063421;28;19908;-65
2022/08/09 11:16:53;;;;;;;;;;;24.40;80.60;;;;;;5075782;28;20010;-64
2022/08/09 11:19:38;;;;;;;;;;;24.40;80.60;;;;;;5094168;28;19996;-65
2022/08/09 11:22:03;;;;;;;;;;;24.40;80.50;;;;;;5093490;28;20279;-64
2022/08/09 11:24:49;;;;;;;;;;;24.40;80.50;;;;;;5075678;28;19909;-64
2022/08/09 11:27:44;;;;;;;;;;;24.40;80.50;;;;;;5093244;28;19959;-64
2022/08/09 11:30:10;;;;;;;;;;;24.40;80.50;;;;;;5080193;28;19996;-64
2022/08/09 11:32:42;;;;;;;;;;;24.40;80.50;;;;;;5075526;28;19912;-65
2022/08/09 11:35:27;;;;;;;;;;;24.40;80.50;;;;;;5093641;28;20358;-64
2022/08/09 11:37:54;;;;;;;;;;;24.40;80.50;;;;;;5093537;28;19912;-64
2022/08/09 11:40:30;;;;;;;;;;;24.40;80.50;;;;;;5075627;28;19951;-64
2022/08/09 11:42:57;;;;;;;;;;;24.40;80.50;;;;;;5093492;28;19908;-64
2022/08/09 11:45:37;;;;;;;;;;;24.40;80.50;;;;;;5075722;28;19997;-64
2022/08/09 11:48:23;;;;;;;;;;;24.40;80.50;;;;;;5093824;28;19916;-64
2022/08/09 11:50:55;;;;;;;;;;;24.40;80.50;;;;;;5094057;28;19912;-65
2022/08/09 11:53:21;;;;;;;;;;;24.40;80.40;;;;;;5093859;28;20259;-65
2022/08/09 11:55:47;;;;;;;;;;;24.40;80.50;;;;;;5075548;28;19996;-64
2022/08/09 11:58:12;;;;;;;;;;;24.40;80.60;;;;;;5094289;28;19913;-65
2022/08/09 12:00:47;;;;;;;;;;;24.40;80.50;;;;;;5098099;28;19987;-64
2022/08/09 12:03:14;;;;;;;;;;;24.40;80.40;;;;;;5097073;28;19920;-64
2022/08/09 12:05:40;;;;;;;;;;;24.40;80.50;;;;;;5079283;28;19908;-64
2022/08/09 12:08:09;;;;;;;;;;;24.40;80.50;;;;;;5096682;28;19965;-64
2022/08/09 12:10:35;;;;;;;;;;;24.40;80.60;;;;;;5097703;28;19942;-64
2022/08/09 12:13:01;;;;;;;;;;;24.40;80.70;;;;;;5079279;28;20347;-64
2022/08/09 12:15:27;;;;;;;;;;;24.40;80.70;;;;;;5097489;28;19909;-64
2022/08/09 12:17:53;;;;;;;;;;;24.40;80.70;;;;;;5096899;28;19962;-64
2022/08/09 12:20:25;;;;;;;;;;;24.40;80.70;;;;;;5097449;28;20007;-64
2022/08/09 12:22:52;;;;;;;;;;;24.40;80.60;;;;;;5079002;28;20355;-64
2022/08/09 12:25:18;;;;;;;;;;;24.40;80.60;;;;;;5097230;28;19908;-64
2022/08/09 12:27:44;;;;;;;;;;;24.40;80.60;;;;;;5079072;28;20467;-64
2022/08/09 12:30:10;;;;;;;;;;;24.40;80.60;;;;;;5097092;28;19912;-64
2022/08/09 12:32:36;;;;;;;;;;;24.40;80.60;;;;;;5096732;28;19914;-64
2022/08/09 12:35:03;;;;;;;;;;;24.40;80.60;;;;;;5079098;28;20011;-64
2022/08/09 12:37:36;;;;;;;;;;;24.40;81.10;;;;;;5096862;28;20362;-65
2022/08/09 12:40:06;;;;;;;;;;;24.40;80.60;;;;;;5096533;28;19973;-64
2022/08/09 12:42:31;;;;;;;;;;;24.40;80.70;;;;;;5096595;28;19908;-64
2022/08/09 12:44:57;;;;;;;;;;;24.40;80.60;;;;;;5096843;28;20240;-64
2022/08/09 12:47:23;;;;;;;;;;;24.40;80.70;;;;;;5096539;28;19965;-64
2022/08/09 12:52:41;;;;;;;;;;;24.40;80.70;;;;;;5096672;28;19953;-64
2022/08/09 12:55:08;;;;;;;;;;;24.40;80.70;;;;;;5096795;28;19908;-65
2022/08/09 12:57:45;;;;;;;;;;;24.40;80.70;;;;;;5096836;28;19961;-64
2022/08/09 13:00:17;;;;;;;;;;;24.40;80.70;;;;;;5078219;28;19908;-64
2022/08/09 13:02:49;;;;;;;;;;;24.40;80.70;;;;;;5078118;28;20010;-64
2022/08/09 13:05:15;;;;;;;;;;;24.40;80.80;;;;;;5096519;28;20031;-64
2022/08/09 13:07:41;;;;;;;;;;;24.40;80.80;;;;;;5078312;28;20305;-64
2022/08/09 13:10:06;;;;;;;;;;;24.40;80.70;;;;;;5077205;28;19912;-64
2022/08/09 13:12:32;;;;;;;;;;;24.40;80.70;;;;;;5096390;28;19909;-64
2022/08/09 13:15:07;;;;;;;;;;;24.40;80.70;;;;;;5078184;28;20266;-64
2022/08/09 13:17:33;;;;;;;;;;;24.40;80.70;;;;;;5078142;28;19995;-64
2022/08/09 13:19:58;;;;;;;;;;;24.40;80.60;;;;;;5096015;28;19955;-64
2022/08/09 13:22:25;;;;;;;;;;;24.40;80.70;;;;;;5111611;28;19912;-64
2022/08/09 13:24:53;;;;;;;;;;;24.40;80.70;;;;;;5096080;28;19908;-64
2022/08/09 13:27:23;;;;;;;;;;;24.40;80.70;;;;;;5095906;28;19912;-64
2022/08/09 13:29:52;;;;;;;;;;;24.40;80.70;;;;;;5095849;28;19912;-64
2022/08/09 13:32:18;;;;;;;;;;;24.40;80.60;;;;;;5096159;28;19951;-65
2022/08/09 13:34:43;;;;;;;;;;;24.40;80.70;;;;;;5077913;28;20377;-64
2022/08/09 13:37:09;;;;;;;;;;;24.40;80.50;;;;;;5077754;28;19957;-64
2022/08/09 13:39:35;;;;;;;;;;;24.40;80.60;;;;;;5095645;28;19912;-65
2022/08/09 13:42:02;;;;;;;;;;;24.40;80.60;;;;;;5077845;28;20358;-64
2022/08/09 13:44:27;;;;;;;;;;;24.40;80.60;;;;;;5095702;28;19908;-64
2022/08/09 13:46:53;;;;;;;;;;;24.40;80.60;;;;;;5095719;28;19914;-64
2022/08/09 13:49:18;;;;;;;;;;;24.40;80.60;;;;;;5095504;28;20007;-64
2022/08/09 13:51:44;;;;;;;;;;;24.40;80.60;;;;;;5095566;28;20346;-64
2022/08/09 13:54:09;;;;;;;;;;;24.40;80.60;;;;;;5095260;28;19915;-64
2022/08/09 13:56:35;;;;;;;;;;;24.40;80.60;;;;;;5077305;28;19909;-65
2022/08/09 13:59:00;;;;;;;;;;;24.40;80.60;;;;;;5095398;28;19962;-64
2022/08/09 14:01:26;;;;;;;;;;;24.40;80.60;;;;;;5095027;28;19942;-64
2022/08/09 14:03:51;;;;;;;;;;;24.40;80.60;;;;;;5095397;28;19908;-64
2022/08/09 14:06:18;;;;;;;;;;;24.40;80.60;;;;;;5095287;28;19908;-64
2022/08/09 14:08:43;;;;;;;;;;;24.40;80.60;;;;;;5094958;28;19947;-64
2022/08/09 14:11:09;;;;;;;;;;;24.40;80.60;;;;;;5094959;28;19912;-64
2022/08/09 14:13:35;;;;;;;;;;;24.40;80.60;;;;;;5095081;28;19912;-64
2022/08/09 14:16:00;;;;;;;;;;;24.40;80.50;;;;;;5095160;28;20353;-64
2022/08/09 14:18:26;;;;;;;;;;;24.40;80.50;;;;;;5094982;28;20258;-64
2022/08/09 14:20:52;;;;;;;;;;;24.40;80.50;;;;;;5094571;28;19908;-64